createdAt,value
2023-04-01T00:00:37.511Z,3.47
2023-04-01T00:04:54.763Z,3.92
2023-04-01T00:09:12.063Z,2.95
2023-04-01T00:13:29.624Z,2.83
2023-04-01T00:17:47.089Z,3.03
2023-04-01T00:22:04.533Z,4.60
2023-04-01T00:26:23.107Z,6.28
2023-04-01T00:34:59.962Z,3.10
2023-04-01T00:39:18.047Z,3.97
2023-04-01T00:43:36.482Z,6.10
2023-04-01T00:47:54.449Z,4.28
2023-04-01T00:52:16.461Z,3.97
2023-04-01T00:56:37.877Z,8.82
2023-04-01T01:00:57.207Z,5.05
2023-04-01T01:05:17.024Z,2.95
2023-04-01T01:09:43.734Z,5.07
2023-04-01T01:14:13.271Z,5.82
2023-04-01T01:19:03.852Z,6.60
2023-04-01T01:23:43.792Z,4.13
2023-04-01T01:28:23.372Z,3.70
2023-04-01T01:33:10.641Z,4.53
2023-04-01T01:37:30.438Z,5.47
2023-04-01T01:41:50.435Z,4.53
2023-04-01T01:46:13.054Z,5.80
2023-04-01T01:50:30.772Z,4.43
2023-04-01T01:54:55.565Z,4.43
2023-04-01T01:59:15.144Z,5.18
2023-04-01T02:03:37.044Z,5.78
2023-04-01T02:08:01.708Z,5.60
2023-04-01T02:12:22.464Z,6.25
2023-04-01T02:16:43.488Z,7.60
2023-04-01T02:21:01.664Z,3.70
2023-04-01T02:25:25.105Z,6.20
2023-04-01T02:29:42.817Z,5.97
2023-04-01T02:34:00.229Z,5.18
2023-04-01T02:38:17.834Z,5.20
2023-04-01T02:42:35.467Z,8.25
2023-04-01T02:46:53.888Z,5.88
2023-04-01T02:51:11.238Z,4.95
2023-04-01T02:55:28.601Z,4.47
2023-04-01T02:59:46.087Z,6.28
2023-04-01T03:04:03.586Z,4.80
2023-04-01T03:08:20.820Z,4.88
2023-04-01T03:12:38.248Z,6.78
2023-04-01T03:16:56.003Z,3.58
2023-04-01T03:21:33.597Z,3.83
2023-04-01T03:25:51.359Z,4.00
2023-04-01T03:30:10.745Z,2.70
2023-04-01T03:34:28.224Z,4.57
2023-04-01T03:38:46.358Z,4.82
2023-04-01T03:43:03.995Z,5.38
2023-04-01T03:47:21.506Z,4.37
2023-04-01T03:51:44.010Z,4.93
2023-04-01T03:56:06.588Z,3.83
2023-04-01T04:00:23.967Z,5.88
2023-04-01T04:04:42.393Z,4.85
2023-04-01T04:13:17.103Z,4.60
2023-04-01T04:17:34.408Z,4.28
2023-04-01T04:21:51.878Z,3.08
2023-04-01T04:26:12.323Z,3.75
2023-04-01T04:30:29.535Z,7.47
2023-04-01T04:34:47.109Z,7.13
2023-04-01T04:39:04.463Z,5.18
2023-04-01T04:43:22.152Z,4.22
2023-04-01T04:47:39.465Z,4.25
2023-04-01T04:51:56.752Z,4.90
2023-04-01T04:56:14.288Z,4.72
2023-04-01T05:00:31.748Z,5.57
2023-04-01T05:04:48.919Z,3.88
2023-04-01T05:09:06.179Z,5.32
2023-04-01T05:13:23.742Z,3.30
2023-04-01T05:17:41.076Z,6.32
2023-04-01T05:21:58.381Z,2.58
2023-04-01T05:26:15.847Z,4.95
2023-04-01T05:30:33.175Z,4.10
2023-04-01T05:34:54.539Z,5.28
2023-04-01T05:39:12.243Z,4.90
2023-04-01T05:43:30.773Z,1.88
2023-04-01T05:47:47.988Z,5.22
2023-04-01T05:52:05.523Z,4.22
2023-04-01T05:56:22.759Z,4.32
2023-04-01T06:00:40.056Z,3.35
2023-04-01T06:05:12.974Z,3.92
2023-04-01T06:09:31.338Z,5.95
2023-04-01T06:14:20.301Z,2.40
2023-04-01T06:18:52.044Z,3.95
2023-04-01T06:23:34.217Z,2.30
2023-04-01T06:28:09.804Z,2.10
2023-04-01T06:32:55.476Z,3.35
2023-04-01T06:37:21.783Z,4.15
2023-04-01T06:42:20.343Z,3.58
2023-04-01T06:46:55.473Z,2.70
2023-04-01T06:51:25.391Z,2.83
2023-04-01T06:55:47.150Z,3.00
2023-04-01T07:00:36.830Z,5.25
2023-04-01T07:04:56.909Z,3.90
2023-04-01T07:09:25.977Z,18.02
2023-04-01T07:18:32.287Z,6.75
2023-04-01T07:22:52.913Z,4.00
2023-04-01T07:27:12.580Z,5.80
2023-04-01T07:31:46.849Z,4.78
2023-04-01T07:36:21.655Z,3.08
2023-04-01T07:41:11.098Z,5.18
2023-04-01T07:46:02.745Z,3.42
2023-04-01T07:50:32.511Z,3.22
2023-04-01T07:55:06.554Z,4.78
2023-04-01T07:59:35.224Z,2.63
2023-04-01T08:04:11.063Z,5.05
2023-04-01T08:08:42.331Z,5.90
2023-04-01T08:13:21.566Z,11.18
2023-04-01T08:17:57.698Z,8.43
2023-04-01T08:22:24.616Z,5.22
2023-04-01T08:26:49.422Z,10.85
2023-04-01T08:31:35.547Z,5.63
2023-04-01T08:36:10.662Z,3.75
2023-04-01T08:40:49.325Z,2.17
2023-04-01T08:45:40.498Z,1.55
2023-04-01T08:50:10.994Z,1.83
2023-04-01T08:54:39.894Z,3.65
2023-04-01T08:59:07.361Z,2.03
2023-04-01T09:03:42.940Z,3.15
2023-04-01T09:08:12.708Z,2.45
2023-04-01T09:12:48.874Z,1.00
2023-04-01T09:17:31.251Z,1.90
2023-04-01T09:22:08.805Z,1.17
2023-04-01T09:27:01.513Z,1.08
2023-04-01T09:31:21.600Z,1.58
2023-04-01T09:35:48.764Z,0.98
2023-04-01T09:40:25.396Z,1.70
2023-04-01T09:44:45.933Z,2.03
2023-04-01T09:49:44.934Z,0.90
2023-04-01T09:54:13.291Z,1.00
2023-04-01T09:58:43.979Z,2.57
2023-04-01T10:03:30.569Z,3.08
2023-04-01T10:08:31.237Z,1.50
2023-04-01T10:13:03.890Z,1.33
2023-04-01T10:18:06.460Z,1.10
2023-04-01T10:22:47.958Z,1.85
2023-04-01T10:27:11.393Z,2.33
2023-04-01T10:31:57.228Z,4.65
2023-04-01T10:36:37.794Z,2.30
2023-04-01T10:41:25.875Z,2.25
2023-04-01T10:46:07.435Z,1.02
2023-04-01T10:50:46.683Z,0.80
2023-04-01T10:55:41.532Z,1.58
2023-04-01T11:00:09.520Z,0.70
2023-04-01T11:05:03.876Z,1.30
2023-04-01T11:09:55.081Z,1.38
2023-04-01T11:14:40.233Z,1.55
2023-04-01T11:19:24.594Z,1.10
2023-04-01T11:24:19.816Z,1.10
2023-04-01T11:28:46.329Z,0.50
2023-04-01T11:33:21.956Z,0.43
2023-04-01T11:38:08.316Z,1.58
2023-04-01T11:42:53.015Z,1.20
2023-04-01T11:47:25.606Z,0.82
2023-04-01T11:52:13.476Z,0.75
2023-04-01T11:56:51.305Z,2.25
2023-04-01T12:01:40.303Z,0.70
2023-04-01T12:06:12.611Z,1.60
2023-04-01T12:10:48.346Z,4.55
2023-04-01T12:15:37.969Z,0.32
2023-04-01T12:20:00.205Z,0.73
2023-04-01T12:24:43.367Z,1.75
2023-04-01T12:29:15.435Z,2.88
2023-04-01T12:33:44.245Z,4.00
2023-04-01T12:38:22.434Z,4.80
2023-04-01T12:42:53.165Z,1.83
2023-04-01T12:47:29.121Z,1.67
2023-04-01T12:51:52.200Z,2.40
2023-04-01T12:56:23.097Z,1.10
2023-04-01T13:00:56.570Z,0.90
2023-04-01T13:05:55.568Z,2.58
2023-04-01T13:10:42.037Z,1.05
2023-04-01T13:15:06.418Z,1.20
2023-04-01T13:20:02.056Z,1.25
2023-04-01T13:24:53.243Z,1.83
2023-04-01T13:29:24.280Z,1.00
2023-04-01T13:33:56.048Z,1.05
2023-04-01T13:38:39.828Z,0.85
2023-04-01T13:43:20.121Z,0.50
2023-04-01T13:48:19.586Z,1.52
2023-04-01T13:52:52.211Z,2.63
2023-04-01T13:57:38.538Z,0.90
2023-04-01T14:02:23.558Z,1.85
2023-04-01T14:07:18.428Z,1.15
2023-04-01T14:11:38.885Z,1.40
2023-04-01T14:16:21.961Z,1.48
2023-04-01T14:21:14.694Z,3.30
2023-04-01T14:25:56.832Z,0.55
2023-04-01T14:30:57.216Z,0.85
2023-04-01T14:39:48.402Z,1.15
2023-04-01T14:44:31.955Z,1.05
2023-04-01T14:48:58.401Z,4.47
2023-04-01T14:53:29.993Z,0.93
2023-04-01T14:58:01.426Z,0.57
2023-04-01T15:02:46.911Z,0.82
2023-04-01T15:07:07.583Z,0.63
2023-04-01T15:11:36.011Z,1.02
2023-04-01T15:16:02.918Z,0.40
2023-04-01T15:20:34.079Z,2.33
2023-04-01T15:25:19.191Z,2.58
2023-04-01T15:30:10.537Z,0.57
2023-04-01T15:34:36.866Z,0.85
2023-04-01T15:39:11.875Z,2.13
2023-04-01T15:43:41.185Z,1.48
2023-04-01T15:48:33.977Z,0.40
2023-04-01T15:53:09.299Z,1.05
2023-04-01T15:57:54.101Z,1.13
2023-04-01T16:02:50.164Z,0.88
2023-04-01T16:07:29.149Z,1.20
2023-04-01T16:12:16.191Z,1.10
2023-04-01T16:17:11.533Z,2.00
2023-04-01T16:21:53.237Z,2.10
2023-04-01T16:26:19.864Z,1.20
2023-04-01T16:30:47.993Z,1.70
2023-04-01T16:35:23.054Z,2.40
2023-04-01T16:40:10.357Z,3.10
2023-04-01T16:44:29.022Z,1.80
2023-04-01T16:49:13.187Z,1.20
2023-04-01T16:53:44.614Z,1.33
2023-04-01T16:58:02.849Z,1.77
2023-04-01T17:02:26.792Z,1.48
2023-04-01T17:06:54.759Z,1.83
2023-04-01T17:11:19.845Z,1.60
2023-04-01T17:15:46.390Z,2.78
2023-04-01T17:20:17.554Z,2.15
2023-04-01T17:24:58.924Z,1.55
2023-04-01T17:29:23.503Z,1.40
2023-04-01T17:34:19.773Z,1.17
2023-04-01T17:38:55.048Z,1.65
2023-04-01T17:43:41.440Z,4.05
2023-04-01T17:48:16.806Z,2.10
2023-04-01T17:52:58.685Z,1.83
2023-04-01T17:57:48.710Z,2.90
2023-04-01T18:02:15.380Z,2.22
2023-04-01T18:07:02.890Z,2.05
2023-04-01T18:11:44.935Z,3.45
2023-04-01T18:16:24.921Z,2.05
2023-04-01T18:21:20.218Z,2.75
2023-04-01T18:25:49.103Z,2.03
2023-04-01T18:30:40.465Z,2.33
2023-04-01T18:35:22.951Z,2.72
2023-04-01T18:39:43.396Z,3.72
2023-04-01T18:44:09.319Z,3.25
2023-04-01T18:49:03.558Z,3.88
2023-04-01T18:53:31.680Z,4.68
2023-04-01T18:57:55.720Z,5.38
2023-04-01T19:02:49.842Z,3.58
2023-04-01T19:07:37.494Z,5.95
2023-04-01T19:12:07.401Z,4.32
2023-04-01T19:16:47.638Z,3.25
2023-04-01T19:21:28.973Z,3.38
2023-04-01T19:25:54.660Z,9.85
2023-04-01T19:30:25.717Z,8.55
2023-04-01T19:34:48.786Z,6.20
2023-04-01T19:39:28.749Z,8.05
2023-04-01T19:44:06.876Z,5.55
2023-04-01T19:48:51.637Z,6.70
2023-04-01T19:53:54.154Z,5.88
2023-04-01T19:58:20.585Z,5.00
2023-04-01T20:02:55.111Z,8.38
2023-04-01T20:07:42.170Z,6.70
2023-04-01T20:12:09.649Z,7.28
2023-04-01T20:16:51.574Z,7.85
2023-04-01T20:21:30.015Z,7.40
2023-04-01T20:26:05.770Z,5.80
2023-04-01T20:30:37.985Z,8.68
2023-04-01T20:35:07.893Z,8.65
2023-04-01T20:39:36.362Z,8.43
2023-04-01T20:44:12.652Z,8.73
2023-04-01T20:48:36.190Z,12.15
2023-04-01T20:53:18.029Z,16.25
2023-04-01T20:57:46.078Z,11.55
2023-04-01T21:02:21.319Z,9.60
2023-04-01T21:06:47.974Z,5.53
2023-04-01T21:11:24.962Z,5.53
2023-04-01T21:16:15.154Z,3.88
2023-04-01T21:21:07.517Z,4.18
2023-04-01T21:25:24.881Z,4.57
2023-04-01T21:30:11.320Z,4.18
2023-04-01T21:34:45.782Z,4.40
2023-04-01T21:39:15.844Z,4.97
2023-04-01T21:43:35.876Z,2.40
2023-04-01T21:48:19.020Z,3.15
2023-04-01T21:52:42.395Z,6.32
2023-04-01T21:57:44.815Z,4.10
2023-04-01T22:02:27.066Z,3.05
2023-04-01T22:07:09.301Z,2.38
2023-04-01T22:11:41.369Z,2.75
2023-04-01T22:16:16.269Z,2.15
2023-04-01T22:21:06.368Z,3.92
2023-04-01T22:25:53.246Z,2.72
2023-04-01T22:30:22.423Z,2.50
2023-04-01T22:35:02.257Z,5.15
2023-04-01T22:39:51.282Z,5.25
2023-04-01T22:44:41.613Z,6.00
2023-04-01T22:49:03.335Z,7.78
2023-04-01T22:53:37.643Z,8.80
2023-04-01T22:58:08.790Z,8.68
2023-04-01T23:02:38.323Z,6.30
2023-04-01T23:07:01.307Z,4.72
2023-04-01T23:11:31.065Z,4.63
2023-04-01T23:15:49.080Z,4.18
2023-04-01T23:20:34.985Z,5.67
2023-04-01T23:25:16.174Z,8.07
2023-04-01T23:29:37.717Z,6.78
2023-04-01T23:34:01.085Z,6.25
2023-04-01T23:38:21.256Z,8.13
2023-04-01T23:42:43.046Z,6.78
2023-04-01T23:47:01.775Z,7.00
2023-04-01T23:51:21.714Z,6.18
2023-04-01T23:55:42.493Z,6.38
